SAS80M EHAM-ENGM
Flight info
| Callsign | SAS80M |
|---|---|
| Flight time | 1h 24m |
| Altitude | 37000 |
| Route | ANDIK Z733 KONOM DCT AMADA DCT PIPEX M609 RIPAM |
| Aircraft | A20N/M-SDE2E3FGHIRWXY/LB1 |
Departure
| Time | 2026-05-06 15:02 |
|---|---|
| Airport | Amsterdam Airport Schiphol (EHAM) |
Arrival
| Time | 2026-05-06 16:26 |
|---|---|
| Airport | Oslo-Gardermoen International Airport (ENGM) |
| Time | Latitude | Longitude | Altitude | Speed | Heading |
|---|---|---|---|---|---|
| 2026-05-06 14:27 | 52.30574 | 4.76694 | 0 ft | 0 kts | 215° |
| 2026-05-06 14:48 | 52.30576 | 4.76697 | 0 ft | 1 kts | 215° |
| 2026-05-06 14:48 | 52.30588 | 4.76711 | 0 ft | 2 kts | 214° |
| 2026-05-06 14:49 | 52.30600 | 4.76724 | 0 ft | 2 kts | 215° |
| 2026-05-06 14:49 | 52.30612 | 4.76738 | 0 ft | 2 kts | 215° |
| 2026-05-06 14:49 | 52.30623 | 4.76755 | 0 ft | 2 kts | 244° |
| 2026-05-06 14:49 | 52.30627 | 4.76778 | 0 ft | 2 kts | 273° |
| 2026-05-06 14:50 | 52.30624 | 4.76799 | 0 ft | 0 kts | 300° |
| 2026-05-06 14:50 | 52.30620 | 4.76808 | 0 ft | 1 kts | 305° |
| 2026-05-06 14:50 | 52.30619 | 4.76810 | 0 ft | 0 kts | 304° |
| 2026-05-06 14:52 | 52.30620 | 4.76809 | 0 ft | 0 kts | 304° |
| 2026-05-06 14:52 | 52.30630 | 4.76787 | 0 ft | 4 kts | 310° |
| 2026-05-06 14:52 | 52.30669 | 4.76738 | 0 ft | 9 kts | 336° |
| 2026-05-06 14:53 | 52.30714 | 4.76802 | 0 ft | 13 kts | 118° |
| 2026-05-06 14:53 | 52.30658 | 4.76896 | 0 ft | 10 kts | 101° |
| 2026-05-06 14:53 | 52.30632 | 4.77007 | 0 ft | 10 kts | 141° |
| 2026-05-06 14:53 | 52.30564 | 4.77073 | 0 ft | 13 kts | 149° |
| 2026-05-06 14:54 | 52.30483 | 4.77014 | 0 ft | 16 kts | 239° |
| 2026-05-06 14:54 | 52.30418 | 4.76842 | 0 ft | 18 kts | 237° |
| 2026-05-06 14:54 | 52.30346 | 4.76656 | 0 ft | 20 kts | 237° |
| 2026-05-06 14:54 | 52.30270 | 4.76455 | 0 ft | 21 kts | 238° |
| 2026-05-06 14:55 | 52.30191 | 4.76245 | 0 ft | 22 kts | 243° |
| 2026-05-06 14:55 | 52.30111 | 4.76040 | 0 ft | 20 kts | 238° |
| 2026-05-06 14:55 | 52.30035 | 4.75838 | 0 ft | 21 kts | 236° |
| 2026-05-06 14:55 | 52.29955 | 4.75636 | 0 ft | 21 kts | 238° |
| 2026-05-06 14:56 | 52.29876 | 4.75428 | 0 ft | 21 kts | 238° |
| 2026-05-06 14:56 | 52.29838 | 4.75212 | 0 ft | 19 kts | 294° |
| 2026-05-06 14:56 | 52.29911 | 4.75064 | 0 ft | 18 kts | 310° |
| 2026-05-06 14:56 | 52.29994 | 4.74910 | 0 ft | 17 kts | 311° |
| 2026-05-06 14:57 | 52.30076 | 4.74757 | 0 ft | 18 kts | 313° |
| 2026-05-06 14:57 | 52.30157 | 4.74604 | 0 ft | 17 kts | 311° |
| 2026-05-06 14:57 | 52.30229 | 4.74474 | 0 ft | 15 kts | 312° |
| 2026-05-06 14:57 | 52.30297 | 4.74347 | 0 ft | 14 kts | 310° |
| 2026-05-06 14:58 | 52.30364 | 4.74221 | 0 ft | 14 kts | 314° |
| 2026-05-06 14:58 | 52.30426 | 4.74084 | 0 ft | 11 kts | 281° |
| 2026-05-06 14:58 | 52.30405 | 4.73962 | 0 ft | 11 kts | 269° |
| 2026-05-06 14:58 | 52.30406 | 4.73933 | 0 ft | 0 kts | 275° |
| 2026-05-06 15:00 | 52.30406 | 4.73931 | 0 ft | 0 kts | 275° |
| 2026-05-06 15:00 | 52.30408 | 4.73903 | 0 ft | 4 kts | 275° |
| 2026-05-06 15:00 | 52.30410 | 4.73837 | 0 ft | 7 kts | 273° |
| 2026-05-06 15:01 | 52.30438 | 4.73753 | 0 ft | 10 kts | 348° |
| 2026-05-06 15:01 | 52.30527 | 4.73763 | 0 ft | 19 kts | 4° |
| 2026-05-06 15:01 | 52.30873 | 4.73796 | 0 ft | 88 kts | 3° |
| 2026-05-06 15:01 | 52.31712 | 4.73871 | 0 ft | 152 kts | 4° |
| 2026-05-06 15:02 | 52.32844 | 4.73951 | 467 ft | 168 kts | 6° |
| 2026-05-06 15:02 | 52.34021 | 4.74174 | 1082 ft | 175 kts | 18° |
| 2026-05-06 15:02 | 52.35144 | 4.74940 | 1640 ft | 184 kts | 31° |
| 2026-05-06 15:02 | 52.36335 | 4.75930 | 2100 ft | 203 kts | 27° |
| 2026-05-06 15:03 | 52.37640 | 4.77063 | 2584 ft | 223 kts | 33° |
| 2026-05-06 15:03 | 52.38876 | 4.78754 | 3188 ft | 240 kts | 44° |
| 2026-05-06 15:03 | 52.40046 | 4.80737 | 3976 ft | 248 kts | 45° |
| 2026-05-06 15:03 | 52.41256 | 4.82752 | 4828 ft | 252 kts | 45° |
| 2026-05-06 15:04 | 52.42530 | 4.84772 | 5469 ft | 256 kts | 39° |
| 2026-05-06 15:04 | 52.44091 | 4.86126 | 5817 ft | 259 kts | 13° |
| 2026-05-06 15:04 | 52.45889 | 4.86302 | 5909 ft | 262 kts | 359° |
| 2026-05-06 15:04 | 52.47697 | 4.86099 | 5905 ft | 262 kts | 357° |
| 2026-05-06 15:05 | 52.49515 | 4.85867 | 5903 ft | 263 kts | 358° |
| 2026-05-06 15:05 | 52.51336 | 4.85661 | 5904 ft | 263 kts | 358° |
| 2026-05-06 15:05 | 52.53149 | 4.85765 | 5887 ft | 260 kts | 16° |
| 2026-05-06 15:05 | 52.54748 | 4.87060 | 5897 ft | 260 kts | 40° |
| 2026-05-06 15:06 | 52.55976 | 4.89296 | 5984 ft | 264 kts | 51° |
| 2026-05-06 15:06 | 52.57106 | 4.91693 | 6638 ft | 270 kts | 52° |
| 2026-05-06 15:06 | 52.58232 | 4.94090 | 7664 ft | 268 kts | 51° |
| 2026-05-06 15:06 | 52.59389 | 4.96521 | 8516 ft | 272 kts | 51° |
| 2026-05-06 15:07 | 52.60561 | 4.98964 | 9349 ft | 276 kts | 51° |
| 2026-05-06 15:07 | 52.61767 | 5.01483 | 10154 ft | 281 kts | 51° |
| 2026-05-06 15:07 | 52.62994 | 5.04052 | 10688 ft | 295 kts | 51° |
| 2026-05-06 15:07 | 52.64314 | 5.06812 | 11087 ft | 314 kts | 50° |
| 2026-05-06 15:08 | 52.65685 | 5.09683 | 11573 ft | 328 kts | 50° |
| 2026-05-06 15:08 | 52.67116 | 5.12685 | 12299 ft | 333 kts | 50° |
| 2026-05-06 15:08 | 52.68535 | 5.15665 | 13035 ft | 337 kts | 51° |
| 2026-05-06 15:08 | 52.69990 | 5.18725 | 13757 ft | 342 kts | 51° |
| 2026-05-06 15:09 | 52.71611 | 5.21618 | 14433 ft | 346 kts | 34° |
| 2026-05-06 15:09 | 52.73766 | 5.23332 | 15235 ft | 344 kts | 17° |
| 2026-05-06 15:09 | 52.76041 | 5.24457 | 15985 ft | 345 kts | 15° |
| 2026-05-06 15:09 | 52.78360 | 5.25599 | 16615 ft | 351 kts | 16° |
| 2026-05-06 15:10 | 52.80677 | 5.26840 | 17290 ft | 354 kts | 17° |
| 2026-05-06 15:10 | 52.82979 | 5.28064 | 18296 ft | 345 kts | 15° |
| 2026-05-06 15:10 | 52.85242 | 5.29105 | 19269 ft | 338 kts | 13° |
| 2026-05-06 15:10 | 52.87505 | 5.30104 | 19934 ft | 340 kts | 13° |
| 2026-05-06 15:11 | 52.89818 | 5.31137 | 20514 ft | 344 kts | 13° |
| 2026-05-06 15:11 | 52.92117 | 5.32184 | 21082 ft | 348 kts | 14° |
| 2026-05-06 15:11 | 52.94485 | 5.33279 | 21447 ft | 359 kts | 14° |
| 2026-05-06 15:11 | 52.96918 | 5.34413 | 21688 ft | 373 kts | 14° |
| 2026-05-06 15:12 | 52.99439 | 5.35598 | 22023 ft | 383 kts | 14° |
| 2026-05-06 15:12 | 53.02034 | 5.36823 | 22545 ft | 387 kts | 14° |
| 2026-05-06 15:12 | 53.04597 | 5.38037 | 23070 ft | 390 kts | 14° |
| 2026-05-06 15:12 | 53.07217 | 5.39280 | 23579 ft | 394 kts | 14° |
| 2026-05-06 15:13 | 53.09860 | 5.40536 | 24058 ft | 398 kts | 14° |
| 2026-05-06 15:13 | 53.12547 | 5.41813 | 24537 ft | 401 kts | 14° |
| 2026-05-06 15:13 | 53.15228 | 5.43087 | 25004 ft | 405 kts | 14° |
| 2026-05-06 15:13 | 53.17939 | 5.44380 | 25449 ft | 408 kts | 14° |
| 2026-05-06 15:14 | 53.20644 | 5.45672 | 25864 ft | 412 kts | 14° |
| 2026-05-06 15:14 | 53.23418 | 5.46997 | 26294 ft | 416 kts | 14° |
| 2026-05-06 15:14 | 53.26218 | 5.48338 | 26715 ft | 419 kts | 14° |
| 2026-05-06 15:14 | 53.29002 | 5.49673 | 27112 ft | 422 kts | 14° |
| 2026-05-06 15:15 | 53.31827 | 5.51030 | 27494 ft | 426 kts | 14° |
| 2026-05-06 15:15 | 53.34687 | 5.52405 | 27875 ft | 429 kts | 14° |
| 2026-05-06 15:15 | 53.37546 | 5.53782 | 28251 ft | 432 kts | 15° |
| 2026-05-06 15:15 | 53.40459 | 5.55186 | 28621 ft | 435 kts | 15° |
| 2026-05-06 15:16 | 53.43355 | 5.56585 | 28962 ft | 438 kts | 15° |
| 2026-05-06 15:16 | 53.46302 | 5.58010 | 29316 ft | 441 kts | 15° |
| 2026-05-06 15:16 | 53.49239 | 5.59433 | 29665 ft | 444 kts | 15° |
| 2026-05-06 15:16 | 53.52213 | 5.60876 | 29985 ft | 447 kts | 15° |
| 2026-05-06 15:17 | 53.55195 | 5.62326 | 30299 ft | 450 kts | 15° |
| 2026-05-06 15:17 | 53.58212 | 5.63795 | 30640 ft | 452 kts | 15° |
| 2026-05-06 15:17 | 53.61243 | 5.65272 | 30988 ft | 453 kts | 15° |
| 2026-05-06 15:17 | 53.64254 | 5.66734 | 31331 ft | 454 kts | 15° |
| 2026-05-06 15:18 | 53.67314 | 5.68221 | 31761 ft | 453 kts | 15° |
| 2026-05-06 15:18 | 53.70320 | 5.69685 | 32189 ft | 452 kts | 15° |
| 2026-05-06 15:18 | 53.73294 | 5.71135 | 32599 ft | 450 kts | 15° |
| 2026-05-06 15:18 | 53.76291 | 5.72598 | 33001 ft | 448 kts | 15° |
| 2026-05-06 15:19 | 53.79295 | 5.74068 | 33375 ft | 447 kts | 15° |
| 2026-05-06 15:19 | 53.82254 | 5.75517 | 33738 ft | 446 kts | 15° |
| 2026-05-06 15:19 | 53.85214 | 5.76970 | 34094 ft | 445 kts | 15° |
| 2026-05-06 15:19 | 53.88185 | 5.78430 | 34420 ft | 444 kts | 15° |
| 2026-05-06 15:20 | 53.91139 | 5.79883 | 34711 ft | 444 kts | 15° |
| 2026-05-06 15:20 | 53.94065 | 5.81325 | 34991 ft | 444 kts | 15° |
| 2026-05-06 15:20 | 53.97006 | 5.82775 | 35263 ft | 444 kts | 15° |
| 2026-05-06 15:20 | 53.99993 | 5.84252 | 35485 ft | 445 kts | 15° |
| 2026-05-06 15:21 | 54.02949 | 5.85715 | 35678 ft | 446 kts | 15° |
| 2026-05-06 15:21 | 54.05924 | 5.87190 | 35879 ft | 447 kts | 15° |
| 2026-05-06 15:21 | 54.08895 | 5.88665 | 36083 ft | 448 kts | 15° |
| 2026-05-06 15:21 | 54.11885 | 5.90152 | 36277 ft | 449 kts | 15° |
| 2026-05-06 15:22 | 54.14872 | 5.91640 | 36451 ft | 450 kts | 15° |
| 2026-05-06 15:22 | 54.17873 | 5.93137 | 36617 ft | 451 kts | 15° |
| 2026-05-06 15:22 | 54.20898 | 5.94652 | 36781 ft | 452 kts | 14° |
| 2026-05-06 15:22 | 54.23901 | 5.96160 | 36921 ft | 452 kts | 14° |
| 2026-05-06 15:23 | 54.26906 | 5.97665 | 36925 ft | 452 kts | 14° |
| 2026-05-06 15:23 | 54.32916 | 6.00676 | 36928 ft | 453 kts | 14° |
| 2026-05-06 15:24 | 54.38966 | 6.03718 | 36926 ft | 453 kts | 14° |
| 2026-05-06 15:24 | 54.44966 | 6.06750 | 36925 ft | 453 kts | 14° |
| 2026-05-06 15:25 | 54.51005 | 6.09811 | 36925 ft | 454 kts | 14° |
| 2026-05-06 15:25 | 54.57056 | 6.12887 | 36925 ft | 454 kts | 14° |
| 2026-05-06 15:26 | 54.63088 | 6.15964 | 36927 ft | 455 kts | 14° |
| 2026-05-06 15:26 | 54.69143 | 6.19060 | 36932 ft | 455 kts | 14° |
| 2026-05-06 15:27 | 54.75165 | 6.22152 | 36940 ft | 456 kts | 14° |
| 2026-05-06 15:27 | 54.81240 | 6.25282 | 36946 ft | 456 kts | 14° |
| 2026-05-06 15:28 | 54.87278 | 6.28403 | 36949 ft | 456 kts | 14° |
| 2026-05-06 15:28 | 54.93342 | 6.31550 | 36950 ft | 457 kts | 13° |
| 2026-05-06 15:29 | 54.99419 | 6.34727 | 36949 ft | 457 kts | 15° |
| 2026-05-06 15:29 | 55.05444 | 6.38382 | 36950 ft | 458 kts | 17° |
| 2026-05-06 15:30 | 55.11432 | 6.42180 | 36949 ft | 459 kts | 17° |
| 2026-05-06 15:30 | 55.17401 | 6.45967 | 36950 ft | 459 kts | 17° |
| 2026-05-06 15:31 | 55.23391 | 6.49770 | 36950 ft | 459 kts | 17° |
| 2026-05-06 15:31 | 55.29376 | 6.53577 | 36950 ft | 460 kts | 17° |
| 2026-05-06 15:32 | 55.38396 | 6.59335 | 36952 ft | 466 kts | 17° |
| 2026-05-06 15:32 | 55.44489 | 6.63238 | 36951 ft | 473 kts | 17° |
| 2026-05-06 15:33 | 55.50703 | 6.67236 | 36949 ft | 475 kts | 18° |
| 2026-05-06 15:33 | 55.56906 | 6.71242 | 36950 ft | 475 kts | 17° |
| 2026-05-06 15:34 | 55.63062 | 6.75228 | 36950 ft | 475 kts | 17° |
| 2026-05-06 15:34 | 55.69281 | 6.79269 | 36947 ft | 471 kts | 18° |
| 2026-05-06 15:35 | 55.75308 | 6.83202 | 36949 ft | 462 kts | 17° |
| 2026-05-06 15:35 | 55.81317 | 6.87131 | 36950 ft | 461 kts | 17° |
| 2026-05-06 15:36 | 55.87312 | 6.91064 | 36950 ft | 461 kts | 17° |
| 2026-05-06 15:36 | 55.93277 | 6.94990 | 36950 ft | 461 kts | 17° |
| 2026-05-06 15:37 | 55.99280 | 6.98956 | 36950 ft | 461 kts | 17° |
| 2026-05-06 15:37 | 56.05289 | 7.02946 | 36948 ft | 464 kts | 17° |
| 2026-05-06 15:38 | 56.11331 | 7.06961 | 36944 ft | 464 kts | 17° |
| 2026-05-06 15:38 | 56.17381 | 7.10997 | 36941 ft | 464 kts | 17° |
| 2026-05-06 15:39 | 56.23402 | 7.15030 | 36937 ft | 464 kts | 17° |
| 2026-05-06 15:39 | 56.29407 | 7.19064 | 36932 ft | 464 kts | 17° |
| 2026-05-06 15:40 | 56.35423 | 7.23119 | 36928 ft | 464 kts | 17° |
| 2026-05-06 15:40 | 56.41461 | 7.27203 | 36929 ft | 464 kts | 17° |
| 2026-05-06 15:41 | 56.47470 | 7.31281 | 36937 ft | 465 kts | 17° |
| 2026-05-06 15:41 | 56.53534 | 7.35407 | 36946 ft | 470 kts | 17° |
| 2026-05-06 15:42 | 56.59668 | 7.39594 | 36950 ft | 478 kts | 17° |
| 2026-05-06 15:42 | 56.65929 | 7.43886 | 36952 ft | 484 kts | 17° |
| 2026-05-06 15:43 | 56.72207 | 7.48210 | 36950 ft | 485 kts | 17° |
| 2026-05-06 15:43 | 56.78521 | 7.52573 | 36950 ft | 485 kts | 17° |
| 2026-05-06 15:44 | 56.84803 | 7.56928 | 36950 ft | 486 kts | 17° |
| 2026-05-06 15:44 | 56.91078 | 7.61291 | 36950 ft | 486 kts | 17° |
| 2026-05-06 15:45 | 56.97403 | 7.65706 | 36948 ft | 486 kts | 18° |
| 2026-05-06 15:45 | 57.03711 | 7.70125 | 36952 ft | 486 kts | 17° |
| 2026-05-06 15:46 | 57.10001 | 7.74549 | 36959 ft | 487 kts | 17° |
| 2026-05-06 15:46 | 57.16336 | 7.79021 | 36967 ft | 488 kts | 17° |
| 2026-05-06 15:47 | 57.22678 | 7.83513 | 36974 ft | 488 kts | 17° |
| 2026-05-06 15:47 | 57.29019 | 7.88021 | 36977 ft | 489 kts | 17° |
| 2026-05-06 15:48 | 57.35345 | 7.92535 | 36978 ft | 489 kts | 17° |
| 2026-05-06 15:48 | 57.41703 | 7.97087 | 36978 ft | 489 kts | 17° |
| 2026-05-06 15:49 | 57.48031 | 8.01638 | 36975 ft | 490 kts | 17° |
| 2026-05-06 15:49 | 57.54369 | 8.06211 | 36973 ft | 490 kts | 17° |
| 2026-05-06 15:50 | 57.60693 | 8.10791 | 36973 ft | 491 kts | 17° |
| 2026-05-06 15:50 | 57.67054 | 8.15416 | 36976 ft | 491 kts | 17° |
| 2026-05-06 15:51 | 57.73320 | 8.19998 | 36969 ft | 470 kts | 17° |
| 2026-05-06 15:51 | 57.76300 | 8.22187 | 36967 ft | 455 kts | 17° |
| 2026-05-06 15:51 | 57.79215 | 8.24327 | 36973 ft | 451 kts | 16° |
| 2026-05-06 15:52 | 57.85072 | 8.28622 | 36977 ft | 450 kts | 16° |
| 2026-05-06 15:52 | 57.90908 | 8.32916 | 36973 ft | 451 kts | 17° |
| 2026-05-06 15:53 | 57.96751 | 8.37239 | 36960 ft | 451 kts | 17° |
| 2026-05-06 15:53 | 58.02583 | 8.41573 | 36954 ft | 451 kts | 16° |
| 2026-05-06 15:54 | 58.08417 | 8.45922 | 36952 ft | 451 kts | 16° |
| 2026-05-06 15:54 | 58.14279 | 8.50303 | 36951 ft | 451 kts | 16° |
| 2026-05-06 15:55 | 58.20080 | 8.54657 | 36952 ft | 452 kts | 16° |
| 2026-05-06 15:55 | 58.21058 | 8.55392 | 36952 ft | 452 kts | 16° |
| 2026-05-06 15:56 | 58.31760 | 8.63469 | 36952 ft | 451 kts | 16° |
| 2026-05-06 15:56 | 58.37619 | 8.67910 | 36951 ft | 451 kts | 17° |
| 2026-05-06 15:57 | 58.43459 | 8.72354 | 36951 ft | 452 kts | 17° |
| 2026-05-06 15:57 | 58.49300 | 8.76820 | 36952 ft | 452 kts | 17° |
| 2026-05-06 15:58 | 58.55183 | 8.81333 | 36952 ft | 452 kts | 17° |
| 2026-05-06 15:58 | 58.61016 | 8.85821 | 36952 ft | 452 kts | 17° |
| 2026-05-06 15:59 | 58.66856 | 8.90334 | 36952 ft | 453 kts | 17° |
| 2026-05-06 15:59 | 58.72702 | 8.94868 | 36950 ft | 453 kts | 17° |
| 2026-05-06 16:00 | 58.78527 | 8.99407 | 36945 ft | 452 kts | 18° |
| 2026-05-06 16:00 | 58.84247 | 9.04741 | 36938 ft | 457 kts | 26° |
| 2026-05-06 16:01 | 58.89550 | 9.11516 | 36931 ft | 461 kts | 34° |
| 2026-05-06 16:01 | 58.94575 | 9.19253 | 36928 ft | 462 kts | 36° |
| 2026-05-06 16:02 | 58.98736 | 9.25760 | 36926 ft | 462 kts | 36° |
| 2026-05-06 16:02 | 59.04601 | 9.34878 | 36925 ft | 462 kts | 35° |
| 2026-05-06 16:03 | 59.09638 | 9.42714 | 36925 ft | 462 kts | 35° |
| 2026-05-06 16:03 | 59.14656 | 9.50551 | 36925 ft | 462 kts | 35° |
| 2026-05-06 16:04 | 59.19742 | 9.58247 | 36925 ft | 460 kts | 31° |
| 2026-05-06 16:04 | 59.25058 | 9.65139 | 36925 ft | 459 kts | 30° |
| 2026-05-06 16:05 | 59.30261 | 9.71764 | 36925 ft | 460 kts | 28° |
| 2026-05-06 16:05 | 59.35986 | 9.76981 | 36926 ft | 450 kts | 12° |
| 2026-05-06 16:06 | 59.42000 | 9.80278 | 36926 ft | 448 kts | 9° |
| 2026-05-06 16:06 | 59.47004 | 9.82951 | 36925 ft | 448 kts | 10° |
| 2026-05-06 16:07 | 59.54053 | 9.86846 | 36925 ft | 448 kts | 10° |
| 2026-05-06 16:07 | 59.60062 | 9.90218 | 36925 ft | 448 kts | 10° |
| 2026-05-06 16:08 | 59.66053 | 9.93594 | 36925 ft | 448 kts | 10° |
| 2026-05-06 16:08 | 59.72079 | 9.96963 | 36925 ft | 449 kts | 10° |
| 2026-05-06 16:09 | 59.78081 | 10.00321 | 36740 ft | 447 kts | 10° |
| 2026-05-06 16:09 | 59.79062 | 10.00872 | 36551 ft | 449 kts | 10° |
| 2026-05-06 16:10 | 59.89797 | 10.06924 | 33590 ft | 474 kts | 9° |
| 2026-05-06 16:10 | 59.92975 | 10.08729 | 32989 ft | 474 kts | 9° |
| 2026-05-06 16:10 | 59.96099 | 10.10517 | 32230 ft | 467 kts | 8° |
| 2026-05-06 16:11 | 59.99214 | 10.12308 | 30971 ft | 471 kts | 8° |
| 2026-05-06 16:11 | 60.02329 | 10.14097 | 29625 ft | 477 kts | 7° |
| 2026-05-06 16:11 | 60.05525 | 10.15932 | 28327 ft | 477 kts | 7° |
| 2026-05-06 16:11 | 60.08675 | 10.17755 | 27354 ft | 468 kts | 7° |
| 2026-05-06 16:12 | 60.11744 | 10.19543 | 26492 ft | 457 kts | 7° |
| 2026-05-06 16:12 | 60.14778 | 10.21313 | 25575 ft | 446 kts | 7° |
| 2026-05-06 16:12 | 60.17729 | 10.23025 | 24272 ft | 446 kts | 6° |
| 2026-05-06 16:12 | 60.20690 | 10.24727 | 22711 ft | 449 kts | 7° |
| 2026-05-06 16:13 | 60.23644 | 10.26420 | 21069 ft | 452 kts | 7° |
| 2026-05-06 16:13 | 60.26639 | 10.28151 | 19323 ft | 454 kts | 8° |
| 2026-05-06 16:13 | 60.29653 | 10.29909 | 17537 ft | 453 kts | 9° |
| 2026-05-06 16:13 | 60.32599 | 10.31704 | 16019 ft | 447 kts | 14° |
| 2026-05-06 16:14 | 60.35433 | 10.34010 | 14633 ft | 437 kts | 19° |
| 2026-05-06 16:14 | 60.38145 | 10.36476 | 13285 ft | 424 kts | 21° |
| 2026-05-06 16:14 | 60.40788 | 10.38930 | 11927 ft | 412 kts | 22° |
| 2026-05-06 16:14 | 60.43332 | 10.41283 | 10612 ft | 400 kts | 23° |
| 2026-05-06 16:15 | 60.45607 | 10.44292 | 9269 ft | 391 kts | 44° |
| 2026-05-06 16:15 | 60.47041 | 10.48727 | 8310 ft | 371 kts | 68° |
| 2026-05-06 16:15 | 60.47622 | 10.53637 | 7565 ft | 348 kts | 86° |
| 2026-05-06 16:15 | 60.47612 | 10.58349 | 6949 ft | 328 kts | 93° |
| 2026-05-06 16:16 | 60.47485 | 10.62823 | 6434 ft | 308 kts | 94° |
| 2026-05-06 16:16 | 60.47367 | 10.67017 | 6002 ft | 290 kts | 95° |
| 2026-05-06 16:16 | 60.47273 | 10.70974 | 5651 ft | 273 kts | 94° |
| 2026-05-06 16:16 | 60.47196 | 10.74722 | 5349 ft | 256 kts | 94° |
| 2026-05-06 16:17 | 60.47131 | 10.78252 | 4954 ft | 247 kts | 94° |
| 2026-05-06 16:17 | 60.47071 | 10.81687 | 4430 ft | 245 kts | 93° |
| 2026-05-06 16:17 | 60.47014 | 10.85100 | 4050 ft | 242 kts | 94° |
| 2026-05-06 16:17 | 60.46957 | 10.88538 | 3979 ft | 239 kts | 93° |
| 2026-05-06 16:18 | 60.46900 | 10.91789 | 3971 ft | 224 kts | 93° |
| 2026-05-06 16:18 | 60.46849 | 10.94846 | 3966 ft | 210 kts | 93° |
| 2026-05-06 16:18 | 60.46800 | 10.97794 | 3977 ft | 212 kts | 93° |
| 2026-05-06 16:18 | 60.46753 | 11.00773 | 3985 ft | 212 kts | 94° |
| 2026-05-06 16:19 | 60.46705 | 11.03768 | 3990 ft | 211 kts | 94° |
| 2026-05-06 16:19 | 60.46628 | 11.06753 | 3983 ft | 210 kts | 102° |
| 2026-05-06 16:19 | 60.46116 | 11.09445 | 3978 ft | 206 kts | 130° |
| 2026-05-06 16:19 | 60.45147 | 11.11598 | 3995 ft | 204 kts | 140° |
| 2026-05-06 16:20 | 60.44105 | 11.13562 | 3990 ft | 207 kts | 140° |
| 2026-05-06 16:20 | 60.43038 | 11.15568 | 3991 ft | 206 kts | 140° |
| 2026-05-06 16:20 | 60.41993 | 11.17562 | 3987 ft | 207 kts | 139° |
| 2026-05-06 16:20 | 60.40892 | 11.19354 | 3959 ft | 196 kts | 161° |
| 2026-05-06 16:21 | 60.39628 | 11.19684 | 4061 ft | 175 kts | 191° |
| 2026-05-06 16:21 | 60.38481 | 11.19136 | 4018 ft | 163 kts | 199° |
| 2026-05-06 16:21 | 60.37434 | 11.18429 | 3877 ft | 159 kts | 200° |
| 2026-05-06 16:21 | 60.36377 | 11.17722 | 3662 ft | 159 kts | 201° |
| 2026-05-06 16:22 | 60.35313 | 11.17054 | 3453 ft | 160 kts | 199° |
| 2026-05-06 16:22 | 60.34252 | 11.16422 | 3241 ft | 158 kts | 198° |
| 2026-05-06 16:22 | 60.33205 | 11.15818 | 3028 ft | 157 kts | 198° |
| 2026-05-06 16:22 | 60.32154 | 11.15221 | 2801 ft | 150 kts | 199° |
| 2026-05-06 16:23 | 60.31177 | 11.14663 | 2606 ft | 144 kts | 197° |
| 2026-05-06 16:23 | 60.30212 | 11.14114 | 2438 ft | 143 kts | 199° |
| 2026-05-06 16:23 | 60.29261 | 11.13570 | 2269 ft | 141 kts | 199° |
| 2026-05-06 16:23 | 60.28331 | 11.13036 | 2076 ft | 139 kts | 198° |
| 2026-05-06 16:24 | 60.27394 | 11.12496 | 1875 ft | 139 kts | 198° |
| 2026-05-06 16:24 | 60.26441 | 11.11950 | 1682 ft | 139 kts | 198° |
| 2026-05-06 16:24 | 60.25507 | 11.11414 | 1498 ft | 138 kts | 197° |
| 2026-05-06 16:24 | 60.24580 | 11.10884 | 1310 ft | 138 kts | 198° |
| 2026-05-06 16:25 | 60.23641 | 11.10338 | 1129 ft | 137 kts | 198° |
| 2026-05-06 16:25 | 60.22706 | 11.09792 | 943 ft | 137 kts | 196° |
| 2026-05-06 16:25 | 60.21786 | 11.09271 | 774 ft | 135 kts | 197° |
| 2026-05-06 16:25 | 60.20896 | 11.08757 | 690 ft | 123 kts | 196° |
| 2026-05-06 16:26 | 60.20223 | 11.08366 | 690 ft | 80 kts | 196° |
| 2026-05-06 16:26 | 60.19931 | 11.08337 | 690 ft | 20 kts | 149° |
| 2026-05-06 16:26 | 60.19893 | 11.08447 | 690 ft | 0 kts | 105° |
| 2026-05-06 16:26 | 60.19892 | 11.08450 | 690 ft | 0 kts | 105° |
| 2026-05-06 16:27 | 60.19888 | 11.08485 | 690 ft | 4 kts | 103° |
| 2026-05-06 16:27 | 60.19875 | 11.08575 | 690 ft | 8 kts | 106° |
| 2026-05-06 16:27 | 60.19854 | 11.08721 | 690 ft | 12 kts | 106° |
| 2026-05-06 16:27 | 60.19828 | 11.08900 | 690 ft | 13 kts | 107° |
| 2026-05-06 16:28 | 60.19801 | 11.09089 | 690 ft | 14 kts | 105° |
| 2026-05-06 16:28 | 60.19774 | 11.09282 | 690 ft | 14 kts | 106° |
| 2026-05-06 16:28 | 60.19745 | 11.09480 | 690 ft | 14 kts | 106° |
| 2026-05-06 16:28 | 60.19717 | 11.09680 | 690 ft | 14 kts | 105° |
| 2026-05-06 16:29 | 60.19686 | 11.09871 | 690 ft | 13 kts | 106° |
| 2026-05-06 16:29 | 60.19672 | 11.09966 | 690 ft | 3 kts | 106° |
| 2026-05-06 16:29 | 60.19671 | 11.09977 | 690 ft | 0 kts | 106° |